Zyana K — WDI6527 — position and weather

sailwx.info

Track history (hours):
 
Tides and Currents Weather Stations Pressure Air Temp Water Temp Dewpoint Dewpoint Depression Visibility Wind Speed Wind Dir Waves Ship Positions

Zyana K

Owner: G & H Towing Company, Galveston, TX. More information available from US FCC via Universal Licensing System and Coast Guard Vessel Documentation Center.

Last reported at 2017-Oct-19 06:01 UTC. Time now 2017-Oct-19 09:19 UTC.
Position N 29°44' W 095°08'.

Length 24 m; draft 5.4 m.

Type: Tug. MMSI: 367719610.

Date/timePositionNaut miles runAvg speedWind from/ knotsBaromVisibWave heightAir tempDewpointWater temp
2017-Oct-19 06:01N 29°44' W 095°08'0 0.2
2017-Oct-19 05:59N 29°44' W 095°08'5 0.6
2017-Oct-18 21:22N 29°44' W 095°14'0 0.0
2017-Oct-18 21:00N 29°43' W 095°14'0 0.2
2017-Oct-18 20:08N 29°43' W 095°13'0 0.7
2017-Oct-18 20:00N 29°43' W 095°13'6 0.8
2017-Oct-18 12:14N 29°44' W 095°07'0 0.3
2017-Oct-18 12:00N 29°44' W 095°07'0 0.0
2017-Oct-18 11:27N 29°44' W 095°07'0 0.0
2017-Oct-18 10:12N 29°44' W 095°07'0 0.0
2017-Oct-18 09:38N 29°44' W 095°07'0 0.0
2017-Oct-18 09:06N 29°44' W 095°07'0 0.0
2017-Oct-18 09:00N 29°44' W 095°07'0 0.0
2017-Oct-18 08:30N 29°44' W 095°07'0 0.0
2017-Oct-18 07:06N 29°44' W 095°07'1 1.0
2017-Oct-18 06:03N 29°45' W 095°06'0 3.3
2017-Oct-18 06:00N 29°45' W 095°06'5 0.6
2017-Oct-17 21:49N 29°42' W 095°01'0 0.1
2017-Oct-17 20:11N 29°42' W 095°01'2 8.4
2017-Oct-17 19:57N 29°44' W 095°03'2 0.4
2017-Oct-17 14:20N 29°42' W 095°01'1 4.6
2017-Oct-17 14:01N 29°41' W 094°60'0 0.8
2017-Oct-17 13:25N 29°41' W 095°00'1 3.2
2017-Oct-17 13:01N 29°41' W 094°59'1 1.2
2017-Oct-17 12:31N 29°40' W 094°59'3 2.6
2017-Oct-17 11:26N 29°42' W 095°01'0 0.0
2017-Oct-17 10:53N 29°42' W 095°01'0 0.0
2017-Oct-17 10:17N 29°42' W 095°01'0 0.0
2017-Oct-17 09:50N 29°42' W 095°01'2 4.9
2017-Oct-17 09:30N 29°44' W 095°02'0 0.2
2017-Oct-17 06:59N 29°44' W 095°01'0 0.0
2017-Oct-17 06:28N 29°44' W 095°01'0 0.0
2017-Oct-17 04:20N 29°44' W 095°01'1 2.5
2017-Oct-17 03:56N 29°44' W 095°02'5 1.5
2017-Oct-17 00:52N 29°44' W 095°08'1 1.2
2017-Oct-17 00:05N 29°44' W 095°07'0 0.0
2017-Oct-16 23:54N 29°44' W 095°07'0 0.0
2017-Oct-16 23:26N 29°44' W 095°07'0 0.0
2017-Oct-16 22:53N 29°44' W 095°07'0 0.0
2017-Oct-16 22:31N 29°44' W 095°07'0 0.0
2017-Oct-16 21:49N 29°44' W 095°07'0 0.0
2017-Oct-16 21:30N 29°44' W 095°07'0 0.0
2017-Oct-16 17:48N 29°44' W 095°07'4 0.3
2017-Oct-16 00:33N 29°44' W 095°02'1 9.3
2017-Oct-16 00:28N 29°44' W 095°02'0 0.2
2017-Oct-15 22:23N 29°44' W 095°03'3 1.0
2017-Oct-15 19:02N 29°45' W 095°07'0 0.2
2017-Oct-15 18:59N 29°45' W 095°07'0 0.0
2017-Oct-15 16:50N 29°45' W 095°07'3 0.4
2017-Oct-15 09:18N 29°45' W 095°10'3 0.1
2017-Oct-14 10:54N 29°44' W 095°07'0 0.0
2017-Oct-13 13:17N 29°45' W 095°07'5 1.3
2017-Oct-13 09:20N 29°44' W 095°13'4 6.8
2017-Oct-13 08:48N 29°44' W 095°17'1 0.3
2017-Oct-13 06:33N 29°44' W 095°16'0 7.1
2017-Oct-13 06:30N 29°44' W 095°16'0 0.2
2017-Oct-13 05:59N 29°44' W 095°16'13 0.9
2017-Oct-12 14:58N 29°42' W 095°01'2 3.8
2017-Oct-12 14:30N 29°41' W 095°00'0 0.5
2017-Oct-12 14:00N 29°41' W 095°00'2 3.9
2017-Oct-12 13:29N 29°40' W 094°58'3 5.7
2017-Oct-12 13:00N 29°42' W 095°00'1 0.5
2017-Oct-12 11:29N 29°42' W 095°01'0 0.0
2017-Oct-12 10:47N 29°42' W 095°01'0 0.1
2017-Oct-12 09:42N 29°42' W 095°01'1 1.0
2017-Oct-12 08:21N 29°44' W 095°01'1 3.6
2017-Oct-12 07:59N 29°42' W 095°01'0 0.0
2017-Oct-12 05:27N 29°42' W 095°01'0 0.0
2017-Oct-12 04:59N 29°42' W 095°01'0 0.0
2017-Oct-12 04:27N 29°42' W 095°01'0 0.0
2017-Oct-12 03:38N 29°42' W 095°01'1 1.6
2017-Oct-12 02:45N 29°44' W 095°01'3 8.4
2017-Oct-12 02:24N 29°45' W 095°04'3 5.9
2017-Oct-12 01:58N 29°44' W 095°07'2 0.5
2017-Oct-11 22:06N 29°46' W 095°05'5 1.3
2017-Oct-11 18:19N 29°42' W 095°01'13 0.7
2017-Oct-10 23:55N 29°44' W 095°17'0 0.2
2017-Oct-10 23:05N 29°44' W 095°17'0 4.0
2017-Oct-10 23:00N 29°44' W 095°16'0 0.1
2017-Oct-10 22:23N 29°44' W 095°16'0 0.0
2017-Oct-10 21:50N 29°44' W 095°16'0 0.0
2017-Oct-10 21:26N 29°44' W 095°16'0 0.0
2017-Oct-10 20:53N 29°44' W 095°16'0 0.0
2017-Oct-10 20:20N 29°44' W 095°16'0 0.0
2017-Oct-10 19:59N 29°44' W 095°16'0 0.1
2017-Oct-10 19:05N 29°44' W 095°16'0 2.7
2017-Oct-10 18:58N 29°44' W 095°16'0 0.1
2017-Oct-10 15:34N 29°44' W 095°17'0 4.1
2017-Oct-10 15:27N 29°44' W 095°16'1 1.5
2017-Oct-10 14:45N 29°43' W 095°15'3 1.5
2017-Oct-10 12:48N 29°45' W 095°12'4 2.3
2017-Oct-10 10:50N 29°44' W 095°07'0 0.0
2017-Oct-10 10:19N 29°44' W 095°07'2 0.3
2017-Oct-10 04:19N 29°44' W 095°09'3 7.5
2017-Oct-10 03:52N 29°44' W 095°12'0 0.0
2017-Oct-10 03:30N 29°44' W 095°12'4 0.3
2017-Oct-09 12:54N 29°44' W 095°08'0 0.2
2017-Oct-09 11:40N 29°44' W 095°08'  
Track history (hours):
 
Tides and Currents Weather Stations Pressure Air Temp Water Temp Dewpoint Dewpoint Depression Visibility Wind Speed Wind Dir Waves Ship Positions

Zyana K

Owner: G & H Towing Company, Galveston, TX. More information available from US FCC via Universal Licensing System and Coast Guard Vessel Documentation Center.

Last reported at 2017-Oct-19 06:01 UTC. Time now 2017-Oct-19 09:19 UTC.
Position N 29°44' W 095°08'.

Length 24 m; draft 5.4 m.

Type: Tug. MMSI: 367719610.

Date/timePositionNaut miles runAvg speedWind from/ knotsBaromVisibWave heightAir tempDewpointWater temp
2017-Oct-19 06:01N 29°44' W 095°08'0 0.2
2017-Oct-19 05:59N 29°44' W 095°08'5 0.6
2017-Oct-18 21:22N 29°44' W 095°14'0 0.0
2017-Oct-18 21:00N 29°43' W 095°14'0 0.2
2017-Oct-18 20:08N 29°43' W 095°13'0 0.7
2017-Oct-18 20:00N 29°43' W 095°13'6 0.8
2017-Oct-18 12:14N 29°44' W 095°07'0 0.3
2017-Oct-18 12:00N 29°44' W 095°07'0 0.0
2017-Oct-18 11:27N 29°44' W 095°07'0 0.0
2017-Oct-18 10:12N 29°44' W 095°07'0 0.0
2017-Oct-18 09:38N 29°44' W 095°07'0 0.0
2017-Oct-18 09:06N 29°44' W 095°07'0 0.0
2017-Oct-18 09:00N 29°44' W 095°07'0 0.0
2017-Oct-18 08:30N 29°44' W 095°07'0 0.0
2017-Oct-18 07:06N 29°44' W 095°07'1 1.0
2017-Oct-18 06:03N 29°45' W 095°06'0 3.3
2017-Oct-18 06:00N 29°45' W 095°06'5 0.6
2017-Oct-17 21:49N 29°42' W 095°01'0 0.1
2017-Oct-17 20:11N 29°42' W 095°01'2 8.4
2017-Oct-17 19:57N 29°44' W 095°03'2 0.4
2017-Oct-17 14:20N 29°42' W 095°01'1 4.6
2017-Oct-17 14:01N 29°41' W 094°60'0 0.8
2017-Oct-17 13:25N 29°41' W 095°00'1 3.2
2017-Oct-17 13:01N 29°41' W 094°59'1 1.2
2017-Oct-17 12:31N 29°40' W 094°59'3 2.6
2017-Oct-17 11:26N 29°42' W 095°01'0 0.0
2017-Oct-17 10:53N 29°42' W 095°01'0 0.0
2017-Oct-17 10:17N 29°42' W 095°01'0 0.0
2017-Oct-17 09:50N 29°42' W 095°01'2 4.9
2017-Oct-17 09:30N 29°44' W 095°02'0 0.2
2017-Oct-17 06:59N 29°44' W 095°01'0 0.0
2017-Oct-17 06:28N 29°44' W 095°01'0 0.0
2017-Oct-17 04:20N 29°44' W 095°01'1 2.5
2017-Oct-17 03:56N 29°44' W 095°02'5 1.5
2017-Oct-17 00:52N 29°44' W 095°08'1 1.2
2017-Oct-17 00:05N 29°44' W 095°07'0 0.0
2017-Oct-16 23:54N 29°44' W 095°07'0 0.0
2017-Oct-16 23:26N 29°44' W 095°07'0 0.0
2017-Oct-16 22:53N 29°44' W 095°07'0 0.0
2017-Oct-16 22:31N 29°44' W 095°07'0 0.0
2017-Oct-16 21:49N 29°44' W 095°07'0 0.0
2017-Oct-16 21:30N 29°44' W 095°07'0 0.0
2017-Oct-16 17:48N 29°44' W 095°07'4 0.3
2017-Oct-16 00:33N 29°44' W 095°02'1 9.3
2017-Oct-16 00:28N 29°44' W 095°02'0 0.2
2017-Oct-15 22:23N 29°44' W 095°03'3 1.0
2017-Oct-15 19:02N 29°45' W 095°07'0 0.2
2017-Oct-15 18:59N 29°45' W 095°07'0 0.0
2017-Oct-15 16:50N 29°45' W 095°07'3 0.4
2017-Oct-15 09:18N 29°45' W 095°10'3 0.1
2017-Oct-14 10:54N 29°44' W 095°07'0 0.0
2017-Oct-13 13:17N 29°45' W 095°07'5 1.3
2017-Oct-13 09:20N 29°44' W 095°13'4 6.8
2017-Oct-13 08:48N 29°44' W 095°17'1 0.3
2017-Oct-13 06:33N 29°44' W 095°16'0 7.1
2017-Oct-13 06:30N 29°44' W 095°16'0 0.2
2017-Oct-13 05:59N 29°44' W 095°16'13 0.9
2017-Oct-12 14:58N 29°42' W 095°01'2 3.8
2017-Oct-12 14:30N 29°41' W 095°00'0 0.5
2017-Oct-12 14:00N 29°41' W 095°00'2 3.9
2017-Oct-12 13:29N 29°40' W 094°58'3 5.7
2017-Oct-12 13:00N 29°42' W 095°00'1 0.5
2017-Oct-12 11:29N 29°42' W 095°01'0 0.0
2017-Oct-12 10:47N 29°42' W 095°01'0 0.1
2017-Oct-12 09:42N 29°42' W 095°01'1 1.0
2017-Oct-12 08:21N 29°44' W 095°01'1 3.6
2017-Oct-12 07:59N 29°42' W 095°01'0 0.0
2017-Oct-12 05:27N 29°42' W 095°01'0 0.0
2017-Oct-12 04:59N 29°42' W 095°01'0 0.0
2017-Oct-12 04:27N 29°42' W 095°01'0 0.0
2017-Oct-12 03:38N 29°42' W 095°01'1 1.6
2017-Oct-12 02:45N 29°44' W 095°01'3 8.4
2017-Oct-12 02:24N 29°45' W 095°04'3 5.9
2017-Oct-12 01:58N 29°44' W 095°07'2 0.5
2017-Oct-11 22:06N 29°46' W 095°05'5 1.3
2017-Oct-11 18:19N 29°42' W 095°01'13 0.7
2017-Oct-10 23:55N 29°44' W 095°17'0 0.2
2017-Oct-10 23:05N 29°44' W 095°17'0 4.0
2017-Oct-10 23:00N 29°44' W 095°16'0 0.1
2017-Oct-10 22:23N 29°44' W 095°16'0 0.0
2017-Oct-10 21:50N 29°44' W 095°16'0 0.0
2017-Oct-10 21:26N 29°44' W 095°16'0 0.0
2017-Oct-10 20:53N 29°44' W 095°16'0 0.0
2017-Oct-10 20:20N 29°44' W 095°16'0 0.0
2017-Oct-10 19:59N 29°44' W 095°16'0 0.1
2017-Oct-10 19:05N 29°44' W 095°16'0 2.7
2017-Oct-10 18:58N 29°44' W 095°16'0 0.1
2017-Oct-10 15:34N 29°44' W 095°17'0 4.1
2017-Oct-10 15:27N 29°44' W 095°16'1 1.5
2017-Oct-10 14:45N 29°43' W 095°15'3 1.5
2017-Oct-10 12:48N 29°45' W 095°12'4 2.3
2017-Oct-10 10:50N 29°44' W 095°07'0 0.0
2017-Oct-10 10:19N 29°44' W 095°07'2 0.3
2017-Oct-10 04:19N 29°44' W 095°09'3 7.5
2017-Oct-10 03:52N 29°44' W 095°12'0 0.0
2017-Oct-10 03:30N 29°44' W 095°12'4 0.3
2017-Oct-09 12:54N 29°44' W 095°08'0 0.2
2017-Oct-09 11:40N 29°44' W 095°08'  

Dump ship's entire track history